KCNM/CNM METAR and TAF weather

Enter ICAO airport designator
Station Type Date Time Source
KCNM METAR 2019/09/21 21:53 UTC NOAA

KCNM 212153Z AUTO 30012KT 7SM -RA SCT050 BKN075 OVC090 19/18 A3000 RMK AO2 PK WND 30031/2057 WSHFT 2054 LTG DSNT NE RAB2056 TSB01E16B30E45 SLP112 T01940178 PNO $


Station Type Date Time Source
KCNM Decoded METAR 2019/09/21 21:53 UTC NOAA

CARLSBAD CAVERN CITY, NM, United States (KCNM) 32-20N 104-16W 985M
Sep 21, 2019 - 05:53 PM EDT / 2019.09.21 2153 UTC
Wind: from the WNW (300 degrees) at 14 MPH (12 KT):0
Visibility: 7 mile(s):0
Sky conditions: overcast
Weather: light rain; Lightning observed
Temperature: 66.9 F (19.4 C)
Dew Point: 64.0 F (17.8 C)
Relative Humidity: 90%
Pressure (altimeter): 30 in. Hg (1015 hPa)
ob: KCNM 212153Z AUTO 30012KT 7SM -RA SCT050 BKN075 OVC090 19/18 A3000 RMK AO2 PK WND 30031/2057 WSHFT 2054 LTG DSNT NE RAB2056 TSB01E16B30E45 SLP112 T01940178 PNO
cycle: 22

Station Type Date Time Source
KCNM TAF 2019/09/21 21:18 UTC NOAA

TAF
AMD KCNM 212117Z 2121/2218 17011KT P6SM SCT040 BKN100
TEMPO 2121/2122 VRB20G30KT 1/2SM +TSRA OVC010CB
FM212200 16009KT P6SM BKN050
TEMPO 2122/2202 VRB20G30KT 4SM -TSRA BKN035CB
FM220500 19007KT P6SM BKN120

Example: see airport list